createdAt,value
2018-05-09T00:01:43.511Z,13.80
2018-05-09T00:04:11.712Z,13.80
2018-05-09T00:06:39.877Z,13.80
2018-05-09T00:09:08.075Z,13.80
2018-05-09T00:11:37.018Z,13.70
2018-05-09T00:14:05.212Z,13.70
2018-05-09T00:16:33.387Z,13.70
2018-05-09T00:19:02.362Z,13.50
2018-05-09T00:21:30.539Z,13.50
2018-05-09T00:23:58.734Z,13.40
2018-05-09T00:26:26.918Z,13.40
2018-05-09T00:28:55.196Z,13.50
2018-05-09T00:31:23.370Z,13.40
2018-05-09T00:33:51.583Z,13.30
2018-05-09T00:36:19.787Z,13.30
2018-05-09T00:38:47.971Z,13.30
2018-05-09T00:41:16.179Z,13.40
2018-05-09T00:43:44.343Z,13.20
2018-05-09T00:46:12.530Z,13.20
2018-05-09T00:48:41.508Z,13.20
2018-05-09T00:51:09.724Z,13.20
2018-05-09T00:53:37.911Z,13.30
2018-05-09T00:56:06.102Z,12.90
2018-05-09T00:58:34.338Z,12.80
2018-05-09T01:01:02.537Z,12.90
2018-05-09T01:03:30.711Z,12.80
2018-05-09T01:05:58.905Z,12.90
2018-05-09T01:08:27.356Z,13.00
2018-05-09T01:10:55.574Z,13.00
2018-05-09T01:13:23.759Z,13.00
2018-05-09T01:15:51.958Z,12.80
2018-05-09T01:18:20.151Z,13.00
2018-05-09T01:20:48.350Z,13.00
2018-05-09T01:23:16.518Z,12.80
2018-05-09T01:25:44.718Z,12.60
2018-05-09T01:28:12.956Z,12.60
2018-05-09T01:30:41.143Z,12.60
2018-05-09T01:33:09.315Z,12.70
2018-05-09T01:38:35.404Z,12.80
2018-05-09T01:41:03.602Z,12.50
2018-05-09T01:43:32.543Z,12.50
2018-05-09T01:46:00.744Z,12.50
2018-05-09T01:48:28.916Z,12.50
2018-05-09T01:50:57.167Z,12.50
2018-05-09T01:53:25.455Z,12.70
2018-05-09T01:55:53.650Z,12.70
2018-05-09T01:58:21.821Z,12.70
2018-05-09T02:00:50.037Z,12.70
2018-05-09T02:03:18.231Z,12.70
2018-05-09T02:05:46.441Z,12.60
2018-05-09T02:08:15.411Z,12.50
2018-05-09T02:10:43.598Z,12.40
2018-05-09T02:13:11.780Z,12.40
2018-05-09T02:15:39.971Z,12.20
2018-05-09T02:18:08.167Z,12.10
2018-05-09T02:20:36.359Z,12.10
2018-05-09T02:23:04.545Z,12.20
2018-05-09T02:25:32.726Z,12.20
2018-05-09T02:28:00.936Z,12.20
2018-05-09T02:30:29.115Z,12.30
2018-05-09T02:32:58.103Z,12.10
2018-05-09T02:35:26.754Z,12.10
2018-05-09T02:37:55.759Z,12.10
2018-05-09T02:40:23.927Z,12.10
2018-05-09T02:42:52.125Z,12.20
2018-05-09T02:45:20.290Z,12.30
2018-05-09T02:47:48.497Z,12.30
2018-05-09T02:50:17.440Z,12.10
2018-05-09T02:52:45.631Z,12.10
2018-05-09T02:55:13.821Z,12.40
2018-05-09T02:57:43.279Z,12.40
2018-05-09T03:00:11.541Z,12.40
2018-05-09T03:02:39.732Z,12.30
2018-05-09T03:05:07.920Z,12.10
2018-05-09T03:07:36.121Z,12.00
2018-05-09T03:10:04.335Z,12.00
2018-05-09T03:12:32.528Z,12.10
2018-05-09T03:15:00.719Z,12.10
2018-05-09T03:17:28.910Z,12.20
2018-05-09T03:19:57.151Z,12.30
2018-05-09T03:22:26.091Z,12.10
2018-05-09T03:24:54.380Z,11.90
2018-05-09T03:27:23.363Z,11.80
2018-05-09T03:29:51.582Z,11.80
2018-05-09T03:32:19.772Z,11.80
2018-05-09T03:34:47.969Z,11.60
2018-05-09T03:37:16.160Z,11.90
2018-05-09T03:39:44.475Z,11.80
2018-05-09T03:42:12.705Z,11.70
2018-05-09T03:44:40.891Z,11.60
2018-05-09T03:47:09.084Z,11.30
2018-05-09T03:49:37.395Z,11.40
2018-05-09T03:52:05.603Z,11.50
2018-05-09T03:54:33.775Z,11.60
2018-05-09T03:57:01.949Z,11.40
2018-05-09T03:59:30.226Z,11.20
2018-05-09T04:02:10.183Z,11.10
2018-05-09T04:04:50.389Z,11.20
2018-05-09T04:07:30.560Z,11.40
2018-05-09T04:09:59.658Z,11.30
2018-05-09T04:12:27.832Z,11.30
2018-05-09T04:14:56.051Z,11.30
2018-05-09T04:17:24.195Z,11.00
2018-05-09T04:19:52.410Z,11.10
2018-05-09T04:22:20.583Z,11.10
2018-05-09T04:24:49.561Z,11.20
2018-05-09T04:27:17.729Z,11.20
2018-05-09T04:29:45.995Z,11.20
2018-05-09T04:32:14.163Z,11.30
2018-05-09T04:34:42.367Z,11.30
2018-05-09T04:37:10.549Z,11.20
2018-05-09T04:39:38.876Z,11.20
2018-05-09T04:42:07.152Z,11.30
2018-05-09T04:44:35.247Z,11.30
2018-05-09T04:47:03.452Z,11.50
2018-05-09T04:49:31.775Z,11.40
2018-05-09T04:51:59.947Z,11.50
2018-05-09T04:54:28.147Z,11.40
2018-05-09T04:56:56.325Z,11.40
2018-05-09T04:59:24.602Z,11.60
2018-05-09T05:01:52.780Z,11.60
2018-05-09T05:04:20.971Z,11.70
2018-05-09T05:06:49.922Z,11.80
2018-05-09T05:09:18.192Z,11.80
2018-05-09T05:11:46.372Z,11.90
2018-05-09T05:14:14.589Z,12.00
2018-05-09T05:16:43.538Z,12.00
2018-05-09T05:19:13.024Z,12.20
2018-05-09T05:21:41.251Z,12.20
2018-05-09T05:24:09.525Z,12.30
2018-05-09T05:26:37.728Z,12.40
2018-05-09T05:29:06.016Z,12.50
2018-05-09T05:31:34.984Z,12.90
2018-05-09T05:34:03.929Z,13.00
2018-05-09T05:36:32.118Z,13.00
2018-05-09T05:39:00.518Z,13.10
2018-05-09T05:41:28.699Z,13.30
2018-05-09T05:43:56.866Z,13.30
2018-05-09T05:46:25.080Z,13.40
2018-05-09T05:48:54.114Z,13.70
2018-05-09T05:51:22.319Z,13.70
2018-05-09T05:53:50.500Z,13.90
2018-05-09T05:56:19.467Z,14.20
2018-05-09T05:58:47.704Z,14.20
2018-05-09T06:01:15.903Z,14.40
2018-05-09T06:03:44.103Z,14.60
2018-05-09T06:06:13.079Z,14.80
2018-05-09T06:08:41.414Z,14.80
2018-05-09T06:11:09.603Z,15.10
2018-05-09T06:13:37.815Z,15.30
2018-05-09T06:16:05.991Z,15.30
2018-05-09T06:18:34.413Z,15.50
2018-05-09T06:21:02.607Z,15.40
2018-05-09T06:23:30.792Z,15.60
2018-05-09T06:25:59.001Z,15.70
2018-05-09T06:28:27.343Z,15.80
2018-05-09T06:30:55.526Z,15.80
2018-05-09T06:33:23.711Z,16.00
2018-05-09T06:35:52.217Z,16.10
2018-05-09T06:38:21.925Z,16.30
2018-05-09T06:40:50.096Z,16.30
2018-05-09T06:43:18.286Z,16.40
2018-05-09T06:45:47.227Z,16.60
2018-05-09T06:48:15.430Z,16.60
2018-05-09T06:50:43.614Z,16.80
2018-05-09T06:53:11.880Z,16.80
2018-05-09T06:55:41.575Z,16.90
2018-05-09T06:58:09.844Z,16.90
2018-05-09T07:00:38.027Z,17.20
2018-05-09T07:03:06.232Z,17.40
2018-05-09T07:05:35.166Z,17.50
2018-05-09T07:08:03.469Z,17.50
2018-05-09T07:10:31.647Z,17.80
2018-05-09T07:12:59.949Z,17.90
2018-05-09T07:15:29.628Z,18.10
2018-05-09T07:17:57.882Z,18.10
2018-05-09T07:20:26.078Z,18.20
2018-05-09T07:22:54.272Z,18.30
2018-05-09T07:25:24.052Z,18.60
2018-05-09T07:27:52.366Z,18.60
2018-05-09T07:30:20.538Z,18.80
2018-05-09T07:32:48.730Z,18.80
2018-05-09T07:35:17.814Z,18.80
2018-05-09T07:37:46.167Z,18.80
2018-05-09T07:40:14.351Z,19.00
2018-05-09T07:42:44.055Z,19.30
2018-05-09T07:45:12.241Z,19.30
2018-05-09T07:47:40.550Z,19.60
2018-05-09T07:50:08.656Z,19.70
2018-05-09T07:52:36.896Z,19.70
2018-05-09T07:55:05.869Z,19.40
2018-05-09T07:57:34.280Z,19.40
2018-05-09T08:00:02.471Z,19.10
2018-05-09T08:02:30.648Z,19.20
2018-05-09T08:04:58.879Z,19.60
2018-05-09T08:07:27.084Z,19.90
2018-05-09T08:09:55.287Z,20.10
2018-05-09T08:12:23.459Z,20.00
2018-05-09T08:14:51.659Z,20.00
2018-05-09T08:17:20.010Z,20.50
2018-05-09T08:19:48.198Z,20.70
2018-05-09T08:22:16.371Z,20.80
2018-05-09T08:24:44.572Z,21.00
2018-05-09T08:27:13.320Z,21.10
2018-05-09T08:29:41.531Z,21.10
2018-05-09T08:32:09.719Z,21.10
2018-05-09T08:34:37.911Z,21.10
2018-05-09T08:37:06.196Z,20.90
2018-05-09T08:39:34.399Z,20.40
2018-05-09T08:42:02.593Z,20.40
2018-05-09T08:44:30.809Z,20.80
2018-05-09T08:46:59.012Z,21.10
2018-05-09T08:49:27.258Z,21.50
2018-05-09T08:51:56.187Z,22.00
2018-05-09T08:54:24.374Z,21.90
2018-05-09T08:56:52.677Z,22.10
2018-05-09T08:59:20.868Z,22.30
2018-05-09T09:01:49.807Z,22.40
2018-05-09T09:04:18.031Z,22.40
2018-05-09T09:06:46.228Z,22.50
2018-05-09T09:09:14.464Z,22.50
2018-05-09T09:11:42.641Z,21.90
2018-05-09T09:14:10.839Z,21.70
2018-05-09T09:16:39.252Z,22.00
2018-05-09T09:19:07.423Z,22.40
2018-05-09T09:21:35.631Z,22.80
2018-05-09T09:24:03.807Z,23.20
2018-05-09T09:26:32.071Z,23.30
2018-05-09T09:29:00.243Z,23.60
2018-05-09T09:31:28.436Z,23.30
2018-05-09T09:33:56.621Z,23.60
2018-05-09T09:36:24.972Z,23.40
2018-05-09T09:38:53.162Z,22.90
2018-05-09T09:41:21.390Z,22.80
2018-05-09T09:43:49.559Z,22.60
2018-05-09T09:46:17.868Z,22.70
2018-05-09T09:48:46.037Z,22.50
2018-05-09T09:51:14.229Z,22.90
2018-05-09T09:53:42.418Z,23.20
2018-05-09T09:56:11.403Z,24.10
2018-05-09T09:58:39.590Z,24.10
2018-05-09T10:01:07.784Z,24.00
2018-05-09T10:03:36.746Z,23.90
2018-05-09T10:06:04.952Z,23.90
2018-05-09T10:08:33.919Z,24.20
2018-05-09T10:11:02.107Z,24.10
2018-05-09T10:13:31.067Z,24.00
2018-05-09T10:15:59.357Z,24.00
2018-05-09T10:18:28.211Z,24.50
2018-05-09T10:20:56.412Z,24.50
2018-05-09T10:23:24.588Z,24.30
2018-05-09T10:25:52.791Z,24.00
2018-05-09T10:28:21.728Z,23.30
2018-05-09T10:30:49.942Z,23.30
2018-05-09T10:33:18.894Z,22.90
2018-05-09T10:35:47.183Z,22.90
2018-05-09T10:38:15.372Z,22.60
2018-05-09T10:40:43.567Z,22.80
2018-05-09T10:43:12.547Z,22.90
2018-05-09T10:45:40.783Z,22.90
2018-05-09T10:48:08.987Z,23.20
2018-05-09T10:50:37.195Z,23.40
2018-05-09T10:53:06.171Z,23.30
2018-05-09T10:55:35.151Z,23.40
2018-05-09T10:58:03.359Z,23.30
2018-05-09T11:00:32.333Z,23.50
2018-05-09T11:03:00.526Z,23.40
2018-05-09T11:05:28.828Z,23.70
2018-05-09T11:07:57.020Z,23.70
2018-05-09T11:10:25.262Z,23.80
2018-05-09T11:12:53.404Z,23.60
2018-05-09T11:15:22.376Z,23.60
2018-05-09T11:17:50.567Z,23.60
2018-05-09T11:20:18.760Z,23.70
2018-05-09T11:22:46.942Z,23.80
2018-05-09T11:25:15.231Z,23.80
2018-05-09T11:27:44.183Z,23.90
2018-05-09T11:30:12.473Z,23.90
2018-05-09T11:32:40.659Z,24.00
2018-05-09T11:35:08.865Z,24.00
2018-05-09T11:37:37.059Z,23.90
2018-05-09T11:40:05.232Z,23.80
2018-05-09T11:42:33.447Z,23.50
2018-05-09T11:45:01.871Z,23.50
2018-05-09T11:47:30.062Z,23.50
2018-05-09T11:49:58.264Z,23.60
2018-05-09T11:52:26.464Z,23.40
2018-05-09T11:54:54.672Z,23.30
2018-05-09T11:57:22.871Z,22.90
2018-05-09T11:59:51.060Z,23.70
2018-05-09T12:02:19.281Z,24.20
2018-05-09T12:04:48.331Z,25.30
2018-05-09T12:07:16.499Z,25.20
2018-05-09T12:09:45.509Z,25.80
2018-05-09T12:12:13.679Z,25.80
2018-05-09T12:14:41.923Z,25.90
2018-05-09T12:17:10.095Z,26.00
2018-05-09T12:19:38.288Z,26.30
2018-05-09T12:22:06.513Z,26.60
2018-05-09T12:24:35.675Z,26.10
2018-05-09T12:27:04.531Z,25.50
2018-05-09T12:29:32.724Z,25.50
2018-05-09T12:32:00.896Z,25.40
2018-05-09T12:34:29.173Z,26.00
2018-05-09T12:36:57.347Z,26.00
2018-05-09T12:39:25.669Z,25.20
2018-05-09T12:41:54.613Z,26.10
2018-05-09T12:44:22.862Z,26.00
2018-05-09T12:46:51.076Z,26.10
2018-05-09T12:49:19.279Z,26.20
2018-05-09T12:51:48.250Z,26.20
2018-05-09T12:54:16.474Z,26.20
2018-05-09T12:56:44.647Z,26.50
2018-05-09T12:59:12.871Z,26.40
2018-05-09T13:01:41.061Z,27.00
2018-05-09T13:04:09.309Z,27.30
2018-05-09T13:06:37.480Z,27.00
2018-05-09T13:09:05.667Z,27.30
2018-05-09T13:11:33.858Z,27.10
2018-05-09T13:14:02.088Z,26.50
2018-05-09T13:16:30.312Z,26.50
2018-05-09T13:18:59.301Z,26.60
2018-05-09T13:21:28.246Z,26.70
2018-05-09T13:23:56.504Z,26.60
2018-05-09T13:26:24.707Z,26.60
2018-05-09T13:28:52.881Z,25.90
2018-05-09T13:31:21.068Z,25.80
2018-05-09T13:33:50.056Z,26.30
2018-05-09T13:36:18.264Z,26.30
2018-05-09T13:38:47.212Z,26.70
2018-05-09T13:41:15.431Z,26.70
2018-05-09T13:43:43.605Z,26.80
2018-05-09T13:46:12.014Z,27.00
2018-05-09T13:48:40.154Z,26.50
2018-05-09T13:51:08.363Z,26.10
2018-05-09T13:53:36.531Z,26.00
2018-05-09T13:56:04.718Z,26.10
2018-05-09T13:58:32.921Z,26.30
2018-05-09T14:01:01.107Z,25.60
2018-05-09T14:03:30.087Z,26.00
2018-05-09T14:05:58.278Z,26.00
2018-05-09T14:08:27.954Z,26.50
2018-05-09T14:10:56.143Z,26.50
2018-05-09T14:13:24.407Z,26.80
2018-05-09T14:15:52.694Z,26.90
2018-05-09T14:18:21.380Z,26.10
2018-05-09T14:20:49.573Z,26.00
2018-05-09T14:23:18.561Z,26.40
2018-05-09T14:25:46.810Z,26.40
2018-05-09T14:28:14.960Z,26.60
2018-05-09T14:30:43.219Z,26.40
2018-05-09T14:33:11.424Z,26.00
2018-05-09T14:35:39.618Z,25.30
2018-05-09T14:38:07.792Z,25.90
2018-05-09T14:40:36.029Z,26.10
2018-05-09T14:43:04.350Z,26.20
2018-05-09T14:45:32.511Z,26.20
2018-05-09T14:48:00.703Z,26.10
2018-05-09T14:50:28.876Z,25.60
2018-05-09T14:52:57.139Z,25.40
2018-05-09T14:55:25.310Z,25.00
2018-05-09T14:57:53.506Z,24.80
2018-05-09T15:00:21.781Z,24.60
2018-05-09T15:02:49.932Z,24.60
2018-05-09T15:05:18.128Z,25.10
2018-05-09T15:07:46.308Z,25.60
2018-05-09T15:10:14.474Z,25.40
2018-05-09T15:12:42.727Z,25.50
2018-05-09T15:15:10.886Z,25.30
2018-05-09T15:17:39.094Z,25.20
2018-05-09T15:20:07.273Z,25.00
2018-05-09T15:22:35.535Z,24.80
2018-05-09T15:25:03.702Z,24.50
2018-05-09T15:27:31.904Z,24.50
2018-05-09T15:30:00.084Z,24.50
2018-05-09T15:32:28.319Z,24.60
2018-05-09T15:34:56.500Z,24.50
2018-05-09T15:37:24.682Z,24.40
2018-05-09T15:39:52.888Z,24.00
2018-05-09T15:42:21.145Z,23.80
2018-05-09T15:44:49.371Z,23.80
2018-05-09T15:47:17.528Z,23.80
2018-05-09T15:49:45.699Z,23.70
2018-05-09T15:52:14.066Z,23.60
2018-05-09T15:54:42.240Z,23.50
2018-05-09T15:57:10.443Z,23.50
2018-05-09T15:59:39.385Z,23.50
2018-05-09T16:02:07.635Z,23.50
2018-05-09T16:04:35.832Z,23.50
2018-05-09T16:07:04.016Z,23.60
2018-05-09T16:09:32.218Z,23.60
2018-05-09T16:12:00.418Z,23.80
2018-05-09T16:14:28.650Z,23.80
2018-05-09T16:16:56.824Z,23.70
2018-05-09T16:19:25.030Z,23.80
2018-05-09T16:21:53.275Z,23.70
2018-05-09T16:24:21.484Z,23.80
2018-05-09T16:26:50.428Z,24.00
2018-05-09T16:29:18.636Z,23.90
2018-05-09T16:31:46.848Z,24.00
2018-05-09T16:34:15.089Z,23.80
2018-05-09T16:36:44.061Z,23.80
2018-05-09T16:39:12.292Z,23.80
2018-05-09T16:41:40.558Z,23.70
2018-05-09T16:44:08.762Z,23.20
2018-05-09T16:46:36.931Z,23.40
2018-05-09T16:49:05.125Z,23.70
2018-05-09T16:51:39.103Z,23.70
2018-05-09T16:54:13.669Z,23.60
2018-05-09T16:56:41.847Z,23.50
2018-05-09T16:59:10.091Z,23.50
2018-05-09T17:01:38.352Z,23.40
2018-05-09T17:04:06.543Z,23.50
2018-05-09T17:06:34.730Z,23.40
2018-05-09T17:09:02.931Z,23.50
2018-05-09T17:11:31.092Z,23.40
2018-05-09T17:13:59.293Z,23.50
2018-05-09T17:16:28.231Z,23.20
2018-05-09T17:18:56.554Z,23.20
2018-05-09T17:21:36.564Z,23.20
2018-05-09T17:24:04.775Z,23.20
2018-05-09T17:26:34.466Z,23.10
2018-05-09T17:29:02.643Z,23.20
2018-05-09T17:31:30.841Z,23.20
2018-05-09T17:33:59.012Z,23.10
2018-05-09T17:36:27.980Z,22.80
2018-05-09T17:38:56.159Z,22.80
2018-05-09T17:41:24.431Z,22.80
2018-05-09T17:43:52.611Z,22.70
2018-05-09T17:46:20.815Z,22.50
2018-05-09T17:48:49.781Z,22.30
2018-05-09T17:51:17.975Z,22.30
2018-05-09T17:53:46.938Z,22.10
2018-05-09T17:56:15.935Z,22.00
2018-05-09T17:58:44.244Z,22.00
2018-05-09T18:01:12.520Z,21.90
2018-05-09T18:03:40.831Z,21.70
2018-05-09T18:06:09.040Z,21.60
2018-05-09T18:08:37.240Z,21.40
2018-05-09T18:11:05.495Z,21.20
2018-05-09T18:13:34.475Z,21.00
2018-05-09T18:16:02.729Z,21.00
2018-05-09T18:18:30.918Z,20.90
2018-05-09T18:20:59.296Z,20.80
2018-05-09T18:23:27.484Z,20.70
2018-05-09T18:25:55.691Z,20.60
2018-05-09T18:28:24.623Z,20.60
2018-05-09T18:30:52.907Z,20.60
2018-05-09T18:33:21.079Z,20.70
2018-05-09T18:35:50.794Z,20.50
2018-05-09T18:38:18.985Z,20.50
2018-05-09T18:40:47.980Z,20.30
2018-05-09T18:43:16.167Z,20.30
2018-05-09T18:45:44.386Z,20.20
2018-05-09T18:48:12.563Z,20.20
2018-05-09T18:50:40.818Z,20.00
2018-05-09T18:53:09.033Z,20.00
2018-05-09T18:55:37.220Z,19.80
2018-05-09T18:58:05.440Z,19.70
2018-05-09T19:00:33.740Z,19.60
2018-05-09T19:03:01.952Z,19.60
2018-05-09T19:05:30.908Z,19.50
2018-05-09T19:07:59.109Z,19.40
2018-05-09T19:10:27.349Z,19.50
2018-05-09T19:12:55.610Z,19.40
2018-05-09T19:15:23.798Z,19.60
2018-05-09T19:17:52.028Z,19.50
2018-05-09T19:20:20.377Z,19.60
2018-05-09T19:22:50.101Z,19.30
2018-05-09T19:25:18.300Z,19.40
2018-05-09T19:27:46.559Z,19.40
2018-05-09T19:30:14.791Z,19.40
2018-05-09T19:32:43.008Z,19.30
2018-05-09T19:35:11.995Z,19.10
2018-05-09T19:37:40.975Z,19.20
2018-05-09T19:40:09.337Z,19.10
2018-05-09T19:42:37.567Z,19.10
2018-05-09T19:45:05.767Z,19.10
2018-05-09T19:47:34.018Z,19.00
2018-05-09T19:50:02.237Z,18.90
2018-05-09T19:52:30.770Z,18.90
2018-05-09T19:54:59.798Z,19.00
2018-05-09T19:57:27.952Z,18.90
2018-05-09T19:59:56.381Z,18.90
2018-05-09T20:02:24.582Z,18.90
2018-05-09T20:04:53.564Z,18.80
2018-05-09T20:07:21.771Z,18.80
2018-05-09T20:09:50.113Z,18.70
2018-05-09T20:12:18.324Z,18.60
2018-05-09T20:14:46.535Z,18.70
2018-05-09T20:17:14.723Z,18.70
2018-05-09T20:19:43.032Z,18.60
2018-05-09T20:22:11.208Z,18.50
2018-05-09T20:24:40.176Z,18.40
2018-05-09T20:27:08.375Z,18.40
2018-05-09T20:29:38.711Z,18.40
2018-05-09T20:32:19.735Z,18.40
2018-05-09T20:34:48.046Z,18.40
2018-05-09T20:37:16.995Z,18.00
2018-05-09T20:39:45.240Z,17.90
2018-05-09T20:42:13.440Z,17.90
2018-05-09T20:44:41.665Z,17.90
2018-05-09T20:47:11.344Z,17.50
2018-05-09T20:49:39.635Z,17.60
2018-05-09T20:52:07.815Z,17.60
2018-05-09T20:54:36.036Z,17.50
2018-05-09T20:57:04.222Z,17.30
2018-05-09T20:59:32.448Z,17.10
2018-05-09T21:02:01.441Z,16.90
2018-05-09T21:04:30.420Z,16.80
2018-05-09T21:06:58.603Z,16.70
2018-05-09T21:09:26.807Z,16.70
2018-05-09T21:12:06.745Z,16.60
2018-05-09T21:14:35.804Z,16.30
2018-05-09T21:17:04.003Z,16.30
2018-05-09T21:19:32.199Z,16.20
2018-05-09T21:22:01.170Z,16.00
2018-05-09T21:24:29.379Z,16.00
2018-05-09T21:26:57.556Z,15.90
2018-05-09T21:29:25.770Z,15.90
2018-05-09T21:31:53.943Z,15.90
2018-05-09T21:34:22.155Z,15.80
2018-05-09T21:36:51.090Z,15.70
2018-05-09T21:39:19.374Z,15.80
2018-05-09T21:41:47.563Z,15.60
2018-05-09T21:44:15.757Z,15.40
2018-05-09T21:46:43.952Z,15.20
2018-05-09T21:49:12.267Z,15.20
2018-05-09T21:51:40.467Z,15.10
2018-05-09T21:54:08.648Z,15.10
2018-05-09T21:56:36.846Z,15.10
2018-05-09T21:59:05.154Z,15.10
2018-05-09T22:01:33.363Z,15.10
2018-05-09T22:04:01.561Z,15.00
2018-05-09T22:06:29.751Z,14.90
2018-05-09T22:08:58.671Z,14.90
2018-05-09T22:11:26.871Z,14.80
2018-05-09T22:13:55.047Z,14.90
2018-05-09T22:16:23.271Z,14.80
2018-05-09T22:18:51.601Z,14.80
2018-05-09T22:21:19.763Z,14.70
2018-05-09T22:23:47.938Z,14.50
2018-05-09T22:26:16.163Z,14.60
2018-05-09T22:28:44.472Z,14.50
2018-05-09T22:31:12.692Z,14.50
2018-05-09T22:33:40.859Z,14.20
2018-05-09T22:36:09.058Z,14.30
2018-05-09T22:38:38.023Z,14.40
2018-05-09T22:41:06.240Z,14.40
2018-05-09T22:43:34.432Z,14.30
2018-05-09T22:46:02.632Z,14.40
2018-05-09T22:48:30.871Z,14.30
2018-05-09T22:50:59.832Z,14.30
2018-05-09T22:53:28.017Z,14.30
2018-05-09T22:55:57.699Z,14.30
2018-05-09T22:58:25.938Z,14.30
2018-05-09T23:00:54.155Z,14.30
2018-05-09T23:03:22.336Z,14.20
2018-05-09T23:05:50.512Z,14.10
2018-05-09T23:08:19.071Z,14.10
2018-05-09T23:10:47.264Z,14.20
2018-05-09T23:13:15.464Z,14.20
2018-05-09T23:15:44.423Z,14.10
2018-05-09T23:18:12.704Z,14.00
2018-05-09T23:20:40.885Z,13.90
2018-05-09T23:23:09.071Z,13.80
2018-05-09T23:25:37.324Z,13.80
2018-05-09T23:28:05.654Z,13.80
2018-05-09T23:30:34.583Z,13.80
2018-05-09T23:33:02.783Z,13.80
2018-05-09T23:35:30.953Z,13.80
2018-05-09T23:37:59.243Z,13.70
2018-05-09T23:40:27.408Z,13.70
2018-05-09T23:42:55.621Z,13.60
2018-05-09T23:45:24.559Z,13.60
2018-05-09T23:47:52.810Z,13.60
2018-05-09T23:50:20.979Z,13.50
2018-05-09T23:52:49.209Z,13.50
2018-05-09T23:55:17.384Z,13.50
2018-05-09T23:57:45.615Z,13.50
